createdAt,value
2019-05-01T00:01:15.902Z,14.50
2019-05-01T00:04:14.430Z,14.50
2019-05-01T00:06:48.822Z,14.50
2019-05-01T00:09:20.444Z,14.50
2019-05-01T00:11:50.871Z,14.50
2019-05-01T00:14:21.477Z,14.50
2019-05-01T00:16:52.009Z,14.50
2019-05-01T00:19:23.466Z,14.60
2019-05-01T00:21:53.843Z,14.50
2019-05-01T00:24:24.419Z,14.50
2019-05-01T00:26:54.851Z,14.30
2019-05-01T00:29:26.136Z,14.30
2019-05-01T00:31:56.652Z,14.30
2019-05-01T00:34:27.225Z,14.10
2019-05-01T00:36:57.647Z,14.10
2019-05-01T00:39:34.663Z,14.00
2019-05-01T00:42:05.111Z,14.00
2019-05-01T00:44:35.813Z,14.00
2019-05-01T00:47:06.373Z,14.00
2019-05-01T00:49:39.522Z,14.00
2019-05-01T00:52:09.824Z,14.00
2019-05-01T00:54:41.839Z,13.90
2019-05-01T00:57:19.882Z,13.80
2019-05-01T01:00:27.464Z,13.80
2019-05-01T01:02:58.474Z,13.80
2019-05-01T01:05:29.202Z,13.70
2019-05-01T01:07:59.658Z,13.80
2019-05-01T01:10:30.130Z,13.80
2019-05-01T01:13:00.645Z,13.80
2019-05-01T01:15:31.203Z,13.80
2019-05-01T01:18:01.648Z,13.80
2019-05-01T01:20:32.283Z,13.80
2019-05-01T01:23:03.356Z,13.70
2019-05-01T01:25:33.960Z,13.70
2019-05-01T01:28:04.399Z,13.60
2019-05-01T01:30:34.832Z,13.60
2019-05-01T01:33:05.354Z,13.70
2019-05-01T01:35:35.827Z,13.60
2019-05-01T01:38:06.534Z,13.70
2019-05-01T01:40:37.998Z,13.60
2019-05-01T01:43:26.503Z,13.60
2019-05-01T01:45:58.458Z,13.60
2019-05-01T01:48:28.817Z,13.50
2019-05-01T01:50:59.453Z,13.50
2019-05-01T01:53:31.053Z,13.50
2019-05-01T01:56:01.555Z,13.40
2019-05-01T01:58:32.161Z,13.40
2019-05-01T02:01:20.339Z,13.40
2019-05-01T02:03:55.275Z,13.30
2019-05-01T02:06:25.704Z,13.40
2019-05-01T02:08:56.877Z,13.40
2019-05-01T02:11:27.795Z,13.30
2019-05-01T02:13:58.482Z,13.30
2019-05-01T02:16:28.933Z,13.20
2019-05-01T02:18:59.247Z,13.20
2019-05-01T02:21:29.688Z,13.20
2019-05-01T02:24:00.047Z,13.10
2019-05-01T02:26:34.800Z,13.10
2019-05-01T02:29:12.862Z,13.20
2019-05-01T02:31:46.660Z,13.10
2019-05-01T02:34:19.095Z,13.10
2019-05-01T02:36:51.984Z,13.00
2019-05-01T02:39:23.466Z,13.00
2019-05-01T02:41:55.619Z,13.10
2019-05-01T02:44:29.600Z,13.00
2019-05-01T02:47:03.449Z,13.00
2019-05-01T02:49:53.253Z,12.90
2019-05-01T02:52:28.272Z,13.00
2019-05-01T02:55:02.691Z,13.00
2019-05-01T02:57:34.647Z,12.90
2019-05-01T03:00:05.771Z,12.80
2019-05-01T03:02:37.737Z,12.90
2019-05-01T03:05:09.492Z,12.90
2019-05-01T03:07:41.292Z,12.80
2019-05-01T03:10:11.768Z,12.70
2019-05-01T03:12:45.297Z,12.80
2019-05-01T03:15:16.398Z,12.80
2019-05-01T03:17:56.794Z,12.80
2019-05-01T03:20:37.296Z,12.70
2019-05-01T03:23:23.959Z,12.70
2019-05-01T03:25:54.782Z,12.60
2019-05-01T03:28:25.472Z,12.60
2019-05-01T03:30:56.516Z,12.60
2019-05-01T03:33:27.024Z,12.60
2019-05-01T03:35:57.691Z,12.50
2019-05-01T03:38:28.261Z,12.50
2019-05-01T03:40:58.929Z,12.50
2019-05-01T03:43:29.532Z,12.50
2019-05-01T03:46:00.155Z,12.40
2019-05-01T03:48:30.585Z,12.50
2019-05-01T03:51:01.292Z,12.40
2019-05-01T03:53:31.808Z,12.30
2019-05-01T03:56:02.074Z,12.30
2019-05-01T03:58:33.069Z,12.20
2019-05-01T04:01:38.867Z,12.20
2019-05-01T04:04:15.304Z,12.20
2019-05-01T04:06:45.774Z,12.20
2019-05-01T04:09:16.055Z,12.20
2019-05-01T04:11:46.718Z,12.20
2019-05-01T04:14:17.467Z,12.20
2019-05-01T04:16:51.968Z,12.20
2019-05-01T04:19:22.405Z,12.20
2019-05-01T04:21:58.228Z,12.10
2019-05-01T04:24:28.769Z,12.10
2019-05-01T04:26:59.204Z,12.20
2019-05-01T04:29:42.267Z,12.10
2019-05-01T04:32:20.536Z,12.00
2019-05-01T04:35:10.361Z,12.00
2019-05-01T04:37:40.937Z,11.90
2019-05-01T04:40:11.344Z,12.00
2019-05-01T04:42:41.648Z,11.90
2019-05-01T04:45:12.561Z,11.90
2019-05-01T04:47:43.063Z,11.90
2019-05-01T04:50:13.634Z,11.90
2019-05-01T04:52:44.939Z,11.90
2019-05-01T04:55:15.991Z,11.90
2019-05-01T04:57:47.078Z,12.10
2019-05-01T05:00:17.588Z,12.30
2019-05-01T05:03:04.393Z,12.20
2019-05-01T05:05:26.659Z,12.20
2019-05-01T05:07:57.114Z,12.20
2019-05-01T05:10:27.807Z,12.30
2019-05-01T05:13:17.744Z,12.10
2019-05-01T05:16:20.506Z,12.10
2019-05-01T05:18:50.876Z,12.20
2019-05-01T05:21:21.251Z,12.10
2019-05-01T05:23:51.816Z,12.10
2019-05-01T05:26:22.231Z,12.20
2019-05-01T05:28:53.204Z,12.20
2019-05-01T05:31:26.051Z,12.30
2019-05-01T05:33:59.134Z,12.40
2019-05-01T05:36:32.143Z,12.50
2019-05-01T05:39:11.865Z,12.60
2019-05-01T05:41:43.420Z,12.70
2019-05-01T05:44:14.288Z,13.00
2019-05-01T05:46:44.629Z,13.20
2019-05-01T05:49:15.942Z,13.20
2019-05-01T05:52:11.556Z,13.40
2019-05-01T12:09:07.723Z,19.10
2019-05-01T12:11:39.809Z,19.10
2019-05-01T12:14:10.230Z,19.10
2019-05-01T12:17:17.835Z,19.20
2019-05-01T12:19:48.270Z,19.20
2019-05-01T12:22:18.776Z,19.30
2019-05-01T12:24:49.324Z,19.30
2019-05-01T12:27:20.073Z,19.30
2019-05-01T12:29:50.411Z,19.30
2019-05-01T12:32:20.850Z,19.30
2019-05-01T12:34:51.299Z,19.30
2019-05-01T12:37:35.190Z,19.30
2019-05-01T12:40:06.648Z,19.40
2019-05-01T12:42:38.116Z,19.40
2019-05-01T12:45:09.772Z,19.40
2019-05-01T12:47:57.543Z,19.40
2019-05-01T12:50:29.498Z,19.50
2019-05-01T12:53:15.248Z,19.40
2019-05-01T12:56:05.228Z,19.50
2019-05-01T12:58:37.211Z,19.40
2019-05-01T13:01:07.899Z,19.40
2019-05-01T13:03:38.392Z,19.50
2019-05-01T13:06:08.861Z,19.60
2019-05-01T13:08:39.278Z,19.80
2019-05-01T13:11:09.774Z,19.70
2019-05-01T13:13:40.112Z,19.70
2019-05-01T13:16:10.538Z,19.80
2019-05-01T13:18:40.823Z,19.80
2019-05-01T13:21:11.295Z,19.90
2019-05-01T13:23:41.711Z,20.00
2019-05-01T13:26:25.564Z,20.00
2019-05-01T13:29:07.139Z,20.00
2019-05-01T13:31:59.566Z,20.00
2019-05-01T13:34:29.911Z,20.00
2019-05-01T13:37:03.031Z,20.00
2019-05-01T13:39:32.558Z,20.20
2019-05-01T13:44:39.915Z,20.50
2019-05-01T13:47:11.186Z,20.30
2019-05-01T13:49:41.515Z,20.30
2019-05-01T13:52:14.940Z,20.40
2019-05-01T13:54:45.265Z,20.50
2019-05-01T13:57:16.725Z,20.60
2019-05-01T13:59:47.064Z,20.60
2019-05-01T14:02:17.515Z,20.60
2019-05-01T14:04:47.799Z,20.70
2019-05-01T14:07:19.461Z,20.80
2019-05-01T14:09:49.789Z,20.80
2019-05-01T14:12:20.158Z,20.90
2019-05-01T14:14:50.482Z,20.80
2019-05-01T14:17:22.811Z,20.80
2019-05-01T14:20:10.800Z,20.90
2019-05-01T14:22:54.083Z,21.00
2019-05-01T14:25:24.348Z,21.20
2019-05-01T14:27:54.677Z,21.30
2019-05-01T14:30:25.051Z,21.30
2019-05-01T14:32:55.391Z,21.40
2019-05-01T14:35:25.652Z,21.60
2019-05-01T14:37:56.249Z,21.70
2019-05-01T14:40:26.696Z,21.80
2019-05-01T14:42:57.018Z,22.20
2019-05-01T14:45:27.304Z,23.10
2019-05-01T14:47:57.655Z,26.40
2019-05-01T14:50:28.007Z,28.50
2019-05-01T14:52:58.355Z,29.30
2019-05-01T14:55:28.708Z,31.80
2019-05-01T14:57:59.029Z,30.00
2019-05-01T15:00:29.375Z,32.70
2019-05-01T15:02:59.727Z,33.30
2019-05-01T15:05:30.019Z,32.70
2019-05-01T15:08:00.435Z,35.00
2019-05-01T15:10:30.787Z,33.60
2019-05-01T15:13:03.854Z,32.60
